^^
Station Historical Data
Daily Summary for March 14, 2018 Units:  English    Metric   Both
« Previous Day
Next Day »
Daily Weekly Monthly Yearly Custom
  High: Low: Average:
Temperature: TemperatureF °F 26.2 °F 33 °F
Dew Point: DewpointF °F 13.3 °F 17.2 °F
Humidity: Humidity% 30% 53%
Wind Speed: WindSpeedMPHmph 0.0mph 2.8mph
Wind Gust: WindSpeedGustMPHmph - -
Wind- - WSW
Pressure: PressureIn in 30.41 in -
Precipitation: 0.00 in    
Historical Graphs
 
 
Tabular Data for March 14, 2018
Time Temperature Dew Point Pressure Wind Wind Speed Wind Gust Humidity Rainfall Rate (Hourly)
TemperatureF °F DewpointF °F PressureIn in Calm     Humidity% HourlyPrecipIn in
00:00 37.6 °F 21.9 °F 30.45 in ENE 2.9 mph 10.0 mph 53% 0.00 in
00:15 36.9 °F 21.4 °F 30.45 in West 0.9 mph 6.0 mph 53% 0.00 in
00:45 35.6 °F 20.1 °F 30.45 in Calm   10.0 mph 53% 0.00 in
00:50 35.2 °F 19.8 °F 30.45 in West 4.0 mph 10.0 mph 53% 0.00 in
00:56 35.1 °F 19.6 °F 30.45 in East 6.9 mph 7.0 mph 53% 0.00 in
01:06 34.9 °F 19.0 °F 30.45 in SW 11.0 mph 11.0 mph 52% 0.00 in
01:16 34.7 °F 17.4 °F 30.45 in NW 6.9 mph 11.0 mph 49% 0.00 in
01:21 34.5 °F 17.8 °F 30.45 in WNW 6.9 mph 18.0 mph 50% 0.00 in
01:26 34.3 °F 17.6 °F 30.45 in SW 2.9 mph 7.0 mph 50% 0.00 in
01:46 34.0 °F 16.9 °F 30.45 in NW 2.0 mph 18.0 mph 49% 0.00 in
01:51 33.8 °F 16.7 °F 30.45 in NW 2.9 mph 9.0 mph 49% 0.00 in
01:56 33.6 °F 16.5 °F 30.45 in West 2.9 mph 13.0 mph 49% 0.00 in
02:01 33.4 °F 16.3 °F 30.45 in WNW 2.9 mph 8.0 mph 49% 0.00 in
02:16 33.3 °F 16.2 °F 30.45 in ENE 2.0 mph 7.0 mph 49% 0.00 in
02:21 33.1 °F 15.4 °F 30.45 in Calm   10.0 mph 48% 0.00 in
02:26 33.1 °F 15.4 °F 30.45 in Calm   7.0 mph 48% 0.00 in
02:31 33.1 °F 15.4 °F 30.44 in SW 0.9 mph 14.0 mph 48% 0.00 in
02:41 32.7 °F 16.2 °F 30.44 in ENE 2.9 mph 7.0 mph 50% 0.00 in
02:46 32.5 °F 16.3 °F 30.44 in Calm   1.0 mph 51% 0.00 in
02:51 32.5 °F 16.3 °F 30.43 in WSW 2.9 mph 3.0 mph 51% 0.00 in
02:56 32.4 °F 16.7 °F 30.44 in Calm   1.0 mph 52% 0.00 in
03:01 32.4 °F 17.1 °F 30.44 in SSW 2.0 mph 6.0 mph 53% 0.00 in
03:06 32.4 °F 17.1 °F 30.44 in South 2.0 mph 5.0 mph 53% 0.00 in
03:11 32.4 °F 17.6 °F 30.43 in WNW 2.9 mph 10.0 mph 54% 0.00 in
03:16 32.5 °F 17.8 °F 30.43 in West 6.0 mph 11.0 mph 54% 0.00 in
03:21 32.4 °F 18.0 °F 30.43 in SW 4.0 mph 5.0 mph 55% 0.00 in
03:27 32.4 °F 18.5 °F 30.43 in WSW 4.9 mph 7.0 mph 56% 0.00 in
03:32 32.4 °F 18.5 °F 30.43 in NW 2.0 mph 6.0 mph 56% 0.00 in
03:37 32.5 °F 18.5 °F 30.42 in WSW 4.9 mph 12.0 mph 56% 0.00 in
03:42 32.5 °F 19.0 °F 30.42 in WNW 2.0 mph 3.0 mph 57% 0.00 in
03:47 32.5 °F 19.4 °F 30.42 in Calm   2.0 mph 58% 0.00 in
03:52 32.5 °F 19.4 °F 30.42 in WNW 2.9 mph 6.0 mph 58% 0.00 in
03:57 32.5 °F 19.8 °F 30.42 in WSW 0.9 mph 4.0 mph 59% 0.00 in
04:02 32.4 °F 20.5 °F 30.42 in SW 4.0 mph 9.0 mph 61% 0.00 in
04:07 32.2 °F 21.4 °F 30.42 in SW 4.9 mph 10.0 mph 64% 0.00 in
04:12 31.8 °F 21.0 °F 30.42 in WSW 6.0 mph 8.0 mph 64% 0.00 in
04:22 31.8 °F 21.0 °F 30.42 in SSW 0.9 mph 5.0 mph 64% 0.00 in
04:32 32.0 °F 20.8 °F 30.42 in Calm   4.0 mph 63% 0.00 in
04:37 32.0 °F 20.1 °F 30.42 in WSW 2.0 mph 13.0 mph 61% 0.00 in
04:42 32.2 °F 20.3 °F 30.41 in West 4.9 mph 8.0 mph 61% 0.00 in
04:47 32.2 °F 19.4 °F 30.42 in WNW 2.9 mph 9.0 mph 59% 0.00 in
05:28 31.5 °F 16.3 °F 30.42 in East 2.0 mph 5.0 mph 53% 0.00 in
05:33 31.3 °F 16.2 °F 30.41 in NW 4.0 mph 11.0 mph 53% 0.00 in
05:38 30.9 °F 15.4 °F 30.42 in WNW 4.9 mph 8.0 mph 52% 0.00 in
05:43 30.9 °F 15.4 °F 30.42 in Calm   7.0 mph 52% 0.00 in
05:48 30.9 °F 15.8 °F 30.42 in West 4.0 mph 10.0 mph 53% 0.00 in
05:53 30.7 °F 15.6 °F 30.42 in NW 6.9 mph 8.0 mph 53% 0.00 in
05:58 30.7 °F 15.3 °F 30.42 in Calm   6.0 mph 52% 0.00 in
06:03 30.6 °F 15.4 °F 30.42 in East 2.9 mph 10.0 mph 53% 0.00 in
06:08 30.4 °F 15.8 °F 30.42 in Calm   9.0 mph 54% 0.00 in
06:13 30.2 °F 15.6 °F 30.43 in WSW 8.1 mph 12.0 mph 54% 0.00 in
06:18 30.0 °F 15.4 °F 30.43 in WSW 2.0 mph 11.0 mph 54% 0.00 in
06:28 29.8 °F 16.0 °F 30.43 in West 4.9 mph 16.0 mph 56% 0.00 in
06:33 29.7 °F 15.4 °F 30.43 in Calm   8.0 mph 55% 0.00 in
06:38 29.7 °F 15.4 °F 30.43 in West 2.9 mph 14.0 mph 55% 0.00 in
06:43 29.7 °F 15.8 °F 30.44 in WNW 6.0 mph 8.0 mph 56% 0.00 in
06:48 29.5 °F 17.2 °F 30.44 in West 2.0 mph 5.0 mph 60% 0.00 in
06:58 28.6 °F 19.4 °F 30.45 in WNW 14.1 mph 14.1 mph 68% 0.00 in
07:03 28.0 °F 20.1 °F 30.45 in West 6.9 mph 15.0 mph 72% 0.00 in
07:08 27.1 °F 21.2 °F 30.45 in WNW 2.0 mph 8.0 mph 78% 0.00 in
07:13 27.0 °F 20.7 °F 30.45 in Calm   15.0 mph 77% 0.00 in
07:18 27.0 °F 20.7 °F 30.46 in West 4.9 mph 13.0 mph 77% 0.00 in
07:23 27.0 °F 21.0 °F 30.46 in Calm   3.0 mph 78% 0.00 in
07:33 27.1 °F 20.3 °F 30.46 in ENE 2.0 mph 2.0 mph 75% 0.00 in
07:38 27.3 °F 20.1 °F 30.46 in ESE 0.9 mph 6.0 mph 74% 0.00 in
07:43 27.3 °F 19.8 °F 30.46 in West 4.9 mph 6.0 mph 73% 0.00 in
07:48 27.3 °F 18.5 °F 30.46 in West 2.0 mph 12.0 mph 69% 0.00 in
07:53 27.5 °F 18.0 °F 30.46 in WSW 0.9 mph 11.0 mph 67% 0.00 in
07:58 27.5 °F 17.6 °F 30.47 in East 4.0 mph 8.0 mph 66% 0.00 in
08:03 27.5 °F 17.2 °F 30.47 in Calm   4.0 mph 65% 0.00 in
08:08 27.5 °F 17.6 °F 30.47 in WSW 4.0 mph 5.0 mph 66% 0.00 in
08:13 27.5 °F 17.2 °F 30.47 in WSW 2.9 mph 6.0 mph 65% 0.00 in
08:18 27.5 °F 17.2 °F 30.47 in East 2.9 mph 8.0 mph 65% 0.00 in
08:23 27.5 °F 17.2 °F 30.47 in Calm   3.0 mph 65% 0.00 in
08:28 27.7 °F 17.4 °F 30.48 in NE 4.0 mph 8.0 mph 65% 0.00 in
08:38 27.9 °F 17.2 °F 30.48 in SE 2.0 mph 3.0 mph 64% 0.00 in
08:43 27.9 °F 17.2 °F 30.48 in Calm   4.0 mph 64% 0.00 in
08:48 28.0 °F 18.1 °F 30.48 in Calm   2.0 mph 66% 0.00 in
08:53 28.2 °F 17.6 °F 30.48 in ESE 0.9 mph 1.0 mph 64% 0.00 in
08:58 28.6 °F 18.0 °F 30.48 in West 6.0 mph 8.0 mph 64% 0.00 in
09:03 28.9 °F 17.6 °F 30.49 in WSW 0.9 mph 5.0 mph 62% 0.00 in
09:08 29.8 °F 17.6 °F 30.49 in West 6.0 mph 8.0 mph 60% 0.00 in
09:13 30.7 °F 17.8 °F 30.49 in SE 0.9 mph 3.0 mph 58% 0.00 in
09:18 32.0 °F 18.1 °F 30.49 in ENE 6.9 mph 11.0 mph 56% 0.00 in
09:23 32.0 °F 17.6 °F 30.50 in Calm   8.0 mph 55% 0.00 in
09:28 31.5 °F 17.6 °F 30.50 in NW 2.9 mph 8.0 mph 56% 0.00 in
09:38 30.0 °F 17.8 °F 30.50 in NNE 0.9 mph 11.0 mph 60% 0.00 in
09:44 29.5 °F 18.5 °F 30.51 in Calm   6.0 mph 63% 0.00 in
09:54 29.7 °F 18.7 °F 30.51 in Calm   9.0 mph 63% 0.00 in
09:59 29.3 °F 19.0 °F 30.51 in Calm   5.0 mph 65% 0.00 in
10:09 29.5 °F 18.9 °F 30.51 in Calm   6.0 mph 64% 0.00 in
10:19 29.7 °F 18.3 °F 30.52 in SW 6.9 mph 7.0 mph 62% 0.00 in
10:24 29.3 °F 18.0 °F 30.52 in West 4.0 mph 5.0 mph 62% 0.00 in
10:29 29.3 °F 17.6 °F 30.53 in WNW 6.0 mph 14.0 mph 61% 0.00 in
10:34 29.3 °F 17.1 °F 30.53 in West 4.9 mph 7.0 mph 60% 0.00 in
10:39 29.5 °F 16.9 °F 30.53 in West 4.9 mph 6.0 mph 59% 0.00 in
10:54 29.5 °F 16.9 °F 30.53 in WNW 2.0 mph 4.0 mph 59% 0.00 in
11:04 30.0 °F 17.8 °F 30.53 in SW 2.0 mph 4.0 mph 60% 0.00 in
11:09 29.8 °F 16.5 °F 30.54 in West 12.1 mph 17.0 mph 57% 0.00 in
11:24 30.6 °F 16.3 °F 30.53 in WNW 4.0 mph 13.0 mph 55% 0.00 in
11:44 31.3 °F 16.2 °F 30.54 in ENE 2.0 mph 8.0 mph 53% 0.00 in
11:49 31.8 °F 14.9 °F 30.54 in NNW 2.9 mph 22.0 mph 49% 0.00 in
11:59 33.1 °F 15.1 °F 30.53 in NNE 2.0 mph 8.0 mph 47% 0.00 in
12:04 33.3 °F 14.7 °F 30.53 in WSW 2.0 mph 12.0 mph 46% 0.00 in
12:29 34.3 °F 15.3 °F 30.53 in WNW 6.9 mph 7.0 mph 45% 0.00 in
12:34 34.5 °F 15.8 °F 30.53 in WSW 8.1 mph 10.0 mph 46% 0.00 in
12:54 35.1 °F 15.8 °F 30.52 in WNW 4.9 mph 12.0 mph 45% 0.00 in
13:10 36.1 °F 15.8 °F 30.52 in WSW 0.9 mph 11.0 mph 43% 0.00 in
13:15 36.3 °F 16.5 °F 30.52 in WSW 6.9 mph 8.0 mph 44% 0.00 in
13:20 36.7 °F 15.8 °F 30.51 in WNW 2.9 mph 11.0 mph 42% 0.00 in
13:30 37.2 °F 15.6 °F 30.51 in WNW 0.9 mph 12.0 mph 41% 0.00 in
13:35 37.2 °F 16.2 °F 30.51 in WSW 8.9 mph 10.0 mph 42% 0.00 in
13:45 37.6 °F 16.0 °F 30.51 in West 4.9 mph 15.0 mph 41% 0.00 in
13:50 37.2 °F 14.5 °F 30.50 in WNW 0.9 mph 16.0 mph 39% 0.00 in
14:00 37.4 °F 15.8 °F 30.50 in WNW 8.1 mph 9.0 mph 41% 0.00 in
14:05 37.4 °F 15.3 °F 30.50 in WNW 6.0 mph 13.0 mph 40% 0.00 in
14:10 37.8 °F 15.6 °F 30.50 in WNW 4.9 mph 20.0 mph 40% 0.00 in
14:15 37.8 °F 15.6 °F 30.50 in ESE 4.0 mph 13.0 mph 40% 0.00 in
14:30 38.7 °F 15.3 °F 30.49 in West 4.9 mph 14.0 mph 38% 0.00 in
14:35 39.0 °F 15.6 °F 30.49 in ENE 2.0 mph 9.0 mph 38% 0.00 in
14:40 39.0 °F 15.6 °F 30.49 in WNW 8.9 mph 17.0 mph 38% 0.00 in
14:45 38.7 °F 14.5 °F 30.48 in WNW 6.9 mph 7.0 mph 37% 0.00 in
15:16 40.3 °F 15.4 °F 30.48 in West 4.9 mph 15.0 mph 36% 0.00 in
15:21 40.6 °F 15.8 °F 30.48 in West 8.1 mph 8.1 mph 36% 0.00 in
16:11 42.1 °F 14.4 °F 30.48 in West 2.9 mph 10.0 mph 32% 0.00 in
16:16 42.4 °F 14.0 °F 30.48 in NW 2.0 mph 16.0 mph 31% 0.00 in
16:21 42.4 °F 14.0 °F 30.47 in WNW 2.9 mph 15.0 mph 31% 0.00 in
16:26 43.0 °F 14.4 °F 30.47 in WSW 4.0 mph 6.0 mph 31% 0.00 in
16:31 43.2 °F 14.5 °F 30.47 in SW 2.0 mph 5.0 mph 31% 0.00 in
16:37 43.3 °F 16.2 °F 30.47 in WNW 8.9 mph 18.0 mph 33% 0.00 in
16:42 43.2 °F 15.3 °F 30.47 in WNW 0.9 mph 9.0 mph 32% 0.00 in
16:47 43.3 °F 16.2 °F 30.47 in WNW 10.1 mph 10.1 mph 33% 0.00 in
17:22 44.8 °F 16.0 °F 30.47 in WSW 4.0 mph 7.0 mph 31% 0.00 in
17:27 45.1 °F 17.1 °F 30.47 in WNW 11.0 mph 14.0 mph 32% 0.00 in
17:32 45.5 °F 15.8 °F 30.47 in SE 0.9 mph 3.0 mph 30% 0.00 in
17:42 44.2 °F 16.2 °F 30.47 in ENE 2.0 mph 6.0 mph 32% 0.00 in
17:47 45.1 °F 17.1 °F 30.47 in SW 2.0 mph 6.0 mph 32% 0.00 in
18:02 44.4 °F 15.6 °F 30.47 in WSW 8.9 mph 10.0 mph 31% 0.00 in
18:07 44.2 °F 15.4 °F 30.48 in West 4.9 mph 6.0 mph 31% 0.00 in
18:12 44.2 °F 15.4 °F 30.48 in ESE 2.9 mph 3.0 mph 31% 0.00 in
18:27 44.1 °F 14.5 °F 30.49 in WNW 6.0 mph 9.0 mph 30% 0.00 in
18:32 43.5 °F 14.2 °F 30.49 in Calm   8.0 mph 30% 0.00 in
18:37 43.3 °F 15.4 °F 30.49 in WNW 6.0 mph 9.0 mph 32% 0.00 in
18:53 39.9 °F 14.5 °F 30.49 in West 0.9 mph 2.0 mph 35% 0.00 in
19:03 39.0 °F 14.9 °F 30.50 in NW 2.9 mph 9.0 mph 37% 0.00 in
19:18 38.5 °F 13.8 °F 30.50 in West 2.0 mph 3.0 mph 36% 0.00 in
19:23 38.1 °F 14.2 °F 30.50 in NW 4.0 mph 7.0 mph 37% 0.00 in
19:28 37.9 °F 13.3 °F 30.50 in WNW 2.0 mph 4.0 mph 36% 0.00 in
19:38 37.6 °F 14.2 °F 30.51 in Calm   4.0 mph 38% 0.00 in
19:48 37.2 °F 15.1 °F 30.51 in Calm   2.0 mph 40% 0.00 in
19:58 36.5 °F 14.5 °F 30.51 in West 2.9 mph 3.0 mph 40% 0.00 in
20:03 36.3 °F 16.0 °F 30.52 in WNW 2.9 mph 5.0 mph 43% 0.00 in
20:08 36.5 °F 15.1 °F 30.52 in Calm   3.0 mph 41% 0.00 in
20:28 35.4 °F 17.6 °F 30.52 in Calm     48% 0.00 in
20:38 34.7 °F 18.0 °F 30.52 in Calm   1.0 mph 50% 0.00 in
20:43 34.3 °F 16.7 °F 30.53 in Calm   1.0 mph 48% 0.00 in
20:53 34.7 °F 18.5 °F 30.53 in Calm   1.0 mph 51% 0.00 in
20:58 34.2 °F 18.0 °F 30.53 in Calm     51% 0.00 in
21:09 32.7 °F 19.6 °F 30.53 in Calm     58% 0.00 in
21:14 32.2 °F 19.9 °F 30.53 in Calm     60% 0.00 in
21:19 31.6 °F 18.5 °F 30.53 in Calm     58% 0.00 in
21:24 31.3 °F 19.4 °F 30.53 in Calm   1.0 mph 61% 0.00 in
21:34 30.6 °F 20.1 °F 30.53 in Calm   1.0 mph 65% 0.00 in
21:39 30.4 °F 19.9 °F 30.53 in Calm   1.0 mph 65% 0.00 in
22:04 29.5 °F 19.2 °F 30.54 in Calm     65% 0.00 in
22:09 29.5 °F 19.6 °F 30.54 in Calm     66% 0.00 in
22:14 28.9 °F 19.8 °F 30.54 in Calm     68% 0.00 in
22:19 28.6 °F 19.8 °F 30.54 in Calm     69% 0.00 in
22:29 28.6 °F 19.8 °F 30.54 in Calm     69% 0.00 in
22:39 28.2 °F 19.4 °F 30.54 in Calm     69% 0.00 in
22:49 27.7 °F 19.2 °F 30.54 in Calm     70% 0.00 in
23:04 27.7 °F 19.8 °F 30.54 in Calm     72% 0.00 in
23:09 27.5 °F 19.4 °F 30.54 in Calm     71% 0.00 in
23:14 27.1 °F 19.4 °F 30.54 in Calm     72% 0.00 in
23:24 26.6 °F 19.0 °F 30.54 in Calm     73% 0.00 in
23:29 26.4 °F 19.9 °F 30.55 in Calm     76% 0.00 in
23:34 26.4 °F 19.2 °F 30.55 in Calm     74% 0.00 in
23:39 26.4 °F 19.2 °F 30.55 in Calm     74% 0.00 in
23:44 26.4 °F 19.2 °F 30.55 in Calm     74% 0.00 in
23:50 26.2 °F 19.8 °F 30.54 in Calm     76% 0.00 in
23:55 26.2 °F 19.4 °F 30.54 in Calm     75% 0.00 in
WheeWeather.com
Compliments of Weather Underground - 2 mb